Time;durP1;ratioP1;P1;durP2;ratioP2;P2;SDS_P1;SDS_P2;PMS_P1;PMS_P2;Temp;Humidity;BMP_temperature;BMP_pressure;BME280_temperature;BME280_humidity;BME280_pressure;Samples;Min_cycle;Max_cycle;Signal;HPM_P1;HPM_P2
2022/04/01 00:01:01;;;;;;;4.38;2.92;;;;;;;;;;4965099;28;20110;-84
2022/04/01 00:03:26;;;;;;;5.88;2.60;;;;;;;;;;4968501;28;20090;-78
2022/04/01 00:05:51;;;;;;;4.97;2.65;;;;;;;;;;4981724;28;20065;-78
2022/04/01 00:08:17;;;;;;;5.00;2.55;;;;;;;;;;4972295;28;20093;-83
2022/04/01 00:10:43;;;;;;;4.07;2.50;;;;;;;;;;4972522;28;20128;-78
2022/04/01 00:13:08;;;;;;;4.53;2.63;;;;;;;;;;4963919;28;20038;-79
2022/04/01 00:15:34;;;;;;;5.45;2.90;;;;;;;;;;4965757;28;20491;-78
2022/04/01 00:18:00;;;;;;;4.93;2.50;;;;;;;;;;4969840;28;20030;-82
2022/04/01 00:20:25;;;;;;;3.65;2.50;;;;;;;;;;4968413;28;20528;-82
2022/04/01 00:22:52;;;;;;;6.13;2.47;;;;;;;;;;4966661;28;20487;-78
2022/04/01 00:25:17;;;;;;;4.80;2.35;;;;;;;;;;4964192;28;20054;-78
2022/04/01 00:27:43;;;;;;;5.13;2.47;;;;;;;;;;4972253;28;20031;-78
2022/04/01 00:30:09;;;;;;;6.43;2.53;;;;;;;;;;4969570;28;20105;-83
2022/04/01 00:32:34;;;;;;;5.32;2.70;;;;;;;;;;4966355;28;20023;-78
2022/04/01 00:35:00;;;;;;;4.68;2.75;;;;;;;;;;4965815;28;20557;-78
2022/04/01 00:37:25;;;;;;;4.22;2.50;;;;;;;;;;4965114;28;20483;-82
2022/04/01 00:39:51;;;;;;;3.80;2.28;;;;;;;;;;4964668;28;21380;-83
2022/04/01 00:42:17;;;;;;;4.90;2.70;;;;;;;;;;4970686;28;20039;-84
2022/04/01 00:44:43;;;;;;;4.95;2.38;;;;;;;;;;4964143;28;20037;-85
2022/04/01 00:47:13;;;;;;;4.75;2.92;;;;;;;;;;4972224;28;20027;-82
2022/04/01 00:49:40;;;;;;;5.93;2.92;;;;;;;;;;4967743;28;20030;-84
2022/04/01 00:52:11;;;;;;;4.70;2.55;;;;;;;;;;4965357;28;20440;-85
2022/04/01 00:54:37;;;;;;;4.50;2.50;;;;;;;;;;4965871;28;20514;-79
2022/04/01 00:57:04;;;;;;;4.95;2.58;;;;;;;;;;4972988;28;20022;-82
2022/04/01 00:59:30;;;;;;;5.13;2.45;;;;;;;;;;4961154;28;20103;-82
2022/04/01 01:01:55;;;;;;;4.45;2.50;;;;;;;;;;4973710;28;20035;-78
2022/04/01 01:09:29;;;;;;;;;;;;;;;;;;4948054;28;20422;-83
2022/04/01 01:11:55;;;;;;;3.67;2.35;;;;;;;;;;4947977;28;19921;-84
2022/04/01 01:14:31;;;;;;;4.55;2.67;;;;;;;;;;4934615;29;20364;-82
2022/04/01 01:16:58;;;;;;;4.65;2.70;;;;;;;;;;4929858;28;20118;-79
2022/04/01 01:19:25;;;;;;;4.47;3.00;;;;;;;;;;4935367;29;20463;-80
2022/04/01 01:21:53;;;;;;;4.15;2.53;;;;;;;;;;4953814;28;20032;-80
2022/04/01 01:24:45;;;;;;;4.22;2.60;;;;;;;;;;4936022;28;20038;-83
2022/04/01 01:27:11;;;;;;;4.80;2.40;;;;;;;;;;4948918;28;20482;-79
2022/04/01 01:29:39;;;;;;;4.38;2.78;;;;;;;;;;4951529;28;20394;-80
2022/04/01 01:32:06;;;;;;;4.75;2.67;;;;;;;;;;4935490;28;20031;-86
2022/04/01 01:34:32;;;;;;;5.57;2.58;;;;;;;;;;4935675;28;20027;-80
2022/04/01 01:36:58;;;;;;;3.95;2.70;;;;;;;;;;4936960;28;20114;-87
2022/04/01 01:39:24;;;;;;;5.50;2.72;;;;;;;;;;4934981;29;20118;-80
2022/04/01 01:41:53;;;;;;;5.18;2.63;;;;;;;;;;4952254;28;20069;-83
2022/04/01 01:44:21;;;;;;;4.20;2.65;;;;;;;;;;4937708;28;20070;-83
2022/04/01 01:46:46;;;;;;;3.95;2.65;;;;;;;;;;4951048;28;20188;-80
2022/04/01 01:49:11;;;;;;;4.22;2.63;;;;;;;;;;4934439;28;20372;-86
2022/04/01 01:57:06;;;;;;;5.25;3.30;;;;;;;;;;4950310;28;20035;-81
2022/04/01 01:59:33;;;;;;;4.18;2.97;;;;;;;;;;4934831;29;20501;-80
2022/04/01 02:02:00;;;;;;;4.32;2.88;;;;;;;;;;4963773;28;20031;-80
2022/04/01 02:04:25;;;;;;;5.88;3.22;;;;;;;;;;4936543;28;20053;-80
2022/04/01 02:06:51;;;;;;;4.82;3.15;;;;;;;;;;4942749;29;20122;-87
2022/04/01 02:09:17;;;;;;;4.40;3.00;;;;;;;;;;4949807;28;20051;-81
2022/04/01 02:11:43;;;;;;;4.45;2.80;;;;;;;;;;4961727;28;20074;-80
2022/04/01 02:14:09;;;;;;;4.85;2.95;;;;;;;;;;4951414;28;20042;-79
2022/04/01 02:16:34;;;;;;;4.90;3.40;;;;;;;;;;4949433;28;20403;-79
2022/04/01 02:19:00;;;;;;;4.35;2.88;;;;;;;;;;4950291;28;20455;-80
2022/04/01 02:21:25;;;;;;;4.45;3.13;;;;;;;;;;4947996;28;20023;-83
2022/04/01 02:23:51;;;;;;;4.28;2.83;;;;;;;;;;4951401;29;20027;-83
2022/04/01 02:26:17;;;;;;;4.07;2.97;;;;;;;;;;4947474;28;20082;-78
2022/04/01 02:28:43;;;;;;;4.20;2.70;;;;;;;;;;4950452;28;20399;-85
2022/04/01 02:31:11;;;;;;;4.65;3.08;;;;;;;;;;4965903;28;20046;-80
2022/04/01 02:33:36;;;;;;;5.47;2.97;;;;;;;;;;4948348;28;20042;-81
2022/04/01 02:36:04;;;;;;;4.50;3.08;;;;;;;;;;4948019;29;20495;-80
2022/04/01 02:38:30;;;;;;;3.85;2.75;;;;;;;;;;4950736;28;20483;-85
2022/04/01 02:40:57;;;;;;;5.10;2.90;;;;;;;;;;4947994;28;20031;-83
2022/04/01 02:43:24;;;;;;;4.75;2.95;;;;;;;;;;4949459;29;20027;-87
2022/04/01 02:45:49;;;;;;;4.85;2.75;;;;;;;;;;4948931;28;20687;-86
2022/04/01 02:48:16;;;;;;;4.57;2.65;;;;;;;;;;4951453;28;20031;-80
2022/04/01 02:50:46;;;;;;;4.38;2.83;;;;;;;;;;4951332;28;20029;-82
2022/04/01 02:53:12;;;;;;;4.88;3.05;;;;;;;;;;4947403;28;20042;-82
2022/04/01 02:55:38;;;;;;;3.65;2.65;;;;;;;;;;4946240;28;20027;-82
2022/04/01 02:58:07;;;;;;;4.10;2.63;;;;;;;;;;4947065;28;20114;-82
2022/04/01 03:00:37;;;;;;;4.13;2.50;;;;;;;;;;4947880;28;20122;-86
2022/04/01 03:03:08;;;;;;;3.92;2.60;;;;;;;;;;4949212;28;20027;-82
2022/04/01 03:05:35;;;;;;;4.15;2.90;;;;;;;;;;4948480;28;20038;-81
2022/04/01 03:08:02;;;;;;;4.88;2.83;;;;;;;;;;4946286;29;20062;-79
2022/04/01 03:10:30;;;;;;;3.95;2.85;;;;;;;;;;4944706;29;20023;-80
2022/04/01 03:12:56;;;;;;;4.45;3.05;;;;;;;;;;4947694;28;20114;-85
2022/04/01 03:15:21;;;;;;;4.72;2.88;;;;;;;;;;4949371;29;20455;-79
2022/04/01 03:17:46;;;;;;;5.75;3.05;;;;;;;;;;4950782;28;20510;-80
2022/04/01 03:20:15;;;;;;;5.22;3.08;;;;;;;;;;4963616;28;20032;-79
2022/04/01 03:22:41;;;;;;;4.53;2.90;;;;;;;;;;4948193;28;20467;-83
2022/04/01 03:25:32;;;;;;;4.68;2.97;;;;;;;;;;4947565;29;20031;-83
2022/04/01 03:27:59;;;;;;;5.55;3.13;;;;;;;;;;4941912;28;20031;-86
2022/04/01 03:30:24;;;;;;;4.00;3.10;;;;;;;;;;4945297;28;20451;-83
2022/04/01 03:32:50;;;;;;;5.28;3.22;;;;;;;;;;4947143;28;20066;-83
2022/04/01 03:35:17;;;;;;;5.75;3.10;;;;;;;;;;4947788;29;20027;-79
2022/04/01 03:37:45;;;;;;;4.50;2.95;;;;;;;;;;4946853;29;20023;-79
2022/04/01 03:40:14;;;;;;;4.07;3.03;;;;;;;;;;4961531;28;20498;-83
2022/04/01 03:42:41;;;;;;;4.47;2.80;;;;;;;;;;4948854;28;20031;-84
2022/04/01 03:45:06;;;;;;;4.95;3.15;;;;;;;;;;4945848;29;20058;-82
2022/04/01 03:47:40;;;;;;;4.30;2.72;;;;;;;;;;4946861;29;20058;-85
2022/04/01 03:50:09;;;;;;;4.38;3.22;;;;;;;;;;4948152;28;20368;-83
2022/04/01 03:52:35;;;;;;;4.30;3.05;;;;;;;;;;4946582;28;20419;-79
2022/04/01 03:55:10;;;;;;;4.97;3.00;;;;;;;;;;4945574;28;20506;-83
2022/04/01 03:57:40;;;;;;;4.85;3.08;;;;;;;;;;4945814;28;20126;-82
2022/04/01 04:00:12;;;;;;;4.80;3.10;;;;;;;;;;4948512;28;20114;-85
2022/04/01 04:02:40;;;;;;;4.30;3.00;;;;;;;;;;4948502;29;20023;-79
2022/04/01 04:05:07;;;;;;;4.75;3.22;;;;;;;;;;4946970;29;20102;-80
2022/04/01 04:07:33;;;;;;;4.63;2.92;;;;;;;;;;4945978;28;20138;-80
2022/04/01 04:09:59;;;;;;;4.97;3.10;;;;;;;;;;4948611;29;20030;-83
2022/04/01 04:12:26;;;;;;;5.00;3.35;;;;;;;;;;4947397;28;20027;-79
2022/04/01 04:14:53;;;;;;;4.72;3.00;;;;;;;;;;4942992;29;20023;-82
2022/04/01 04:17:30;;;;;;;5.00;2.92;;;;;;;;;;4944569;28;20038;-79
2022/04/01 04:20:02;;;;;;;4.82;3.13;;;;;;;;;;4947959;29;20038;-79
2022/04/01 04:22:43;;;;;;;4.60;3.00;;;;;;;;;;4947864;28;20058;-79
2022/04/01 04:25:14;;;;;;;4.90;3.30;;;;;;;;;;4945154;28;20132;-82
2022/04/01 04:27:51;;;;;;;4.75;2.95;;;;;;;;;;4945182;28;20102;-80
2022/04/01 04:30:17;;;;;;;4.85;3.03;;;;;;;;;;4946400;28;20382;-84
2022/04/01 04:32:55;;;;;;;4.47;3.03;;;;;;;;;;4941093;29;20088;-79
2022/04/01 04:35:21;;;;;;;4.90;3.15;;;;;;;;;;4943680;29;20043;-85
2022/04/01 04:37:47;;;;;;;4.22;2.85;;;;;;;;;;4946909;29;20565;-82
2022/04/01 04:40:17;;;;;;;5.57;3.10;;;;;;;;;;4957600;28;20032;-82
2022/04/01 04:42:51;;;;;;;4.90;2.67;;;;;;;;;;4949210;29;20446;-80
2022/04/01 04:45:21;;;;;;;7.88;2.97;;;;;;;;;;4939102;29;20035;-80
2022/04/01 04:47:48;;;;;;;4.03;2.80;;;;;;;;;;4946876;29;20030;-80
2022/04/01 04:50:16;;;;;;;4.80;3.17;;;;;;;;;;4944265;28;20184;-82
2022/04/01 04:52:48;;;;;;;4.72;2.72;;;;;;;;;;4948971;28;20034;-80
2022/04/01 04:55:14;;;;;;;5.25;3.20;;;;;;;;;;4945752;29;20152;-86
2022/04/01 04:57:42;;;;;;;3.90;2.85;;;;;;;;;;4945143;28;20028;-82
2022/04/01 05:00:08;;;;;;;7.55;3.20;;;;;;;;;;4942306;28;20031;-80
2022/04/01 05:03:06;;;;;;;5.28;3.30;;;;;;;;;;4945820;28;20070;-79
2022/04/01 05:05:38;;;;;;;4.97;3.05;;;;;;;;;;4960361;28;20173;-79
2022/04/01 05:08:22;;;;;;;4.57;2.77;;;;;;;;;;4945615;29;20126;-85
2022/04/01 05:11:06;;;;;;;5.82;2.80;;;;;;;;;;4944099;28;20314;-80
2022/04/01 05:13:59;;;;;;;4.95;3.03;;;;;;;;;;4942962;28;20475;-83
2022/04/01 05:16:37;;;;;;;4.78;3.03;;;;;;;;;;4964081;28;20031;-83
2022/04/01 05:19:12;;;;;;;4.78;2.85;;;;;;;;;;4944466;28;20122;-83
2022/04/01 05:21:53;;;;;;;4.40;2.90;;;;;;;;;;4943873;29;20059;-85
2022/04/01 05:24:27;;;;;;;5.53;3.28;;;;;;;;;;4944452;29;20043;-86
2022/04/01 05:26:55;;;;;;;4.32;2.63;;;;;;;;;;4962779;28;20031;-79
2022/04/01 05:29:31;;;;;;;5.72;3.00;;;;;;;;;;4962312;28;20091;-82
2022/04/01 05:32:09;;;;;;;4.45;2.88;;;;;;;;;;4941265;29;20028;-80
2022/04/01 05:34:49;;;;;;;4.40;2.58;;;;;;;;;;4947037;28;20039;-80
2022/04/01 05:37:16;;;;;;;4.20;2.53;;;;;;;;;;4946929;29;20090;-84
2022/04/01 05:39:47;;;;;;;5.63;2.63;;;;;;;;;;4947842;29;20038;-82
2022/04/01 05:42:13;;;;;;;4.35;2.83;;;;;;;;;;4945354;28;20029;-80
2022/04/01 05:44:42;;;;;;;7.95;3.10;;;;;;;;;;4944204;28;20039;-82
2022/04/01 05:47:07;;;;;;;5.53;3.13;;;;;;;;;;4949689;28;20075;-83
2022/04/01 05:49:38;;;;;;;6.22;2.80;;;;;;;;;;4944041;29;20058;-79
2022/04/01 05:52:04;;;;;;;4.32;2.67;;;;;;;;;;4951333;28;20443;-82
2022/04/01 05:54:30;;;;;;;4.88;2.70;;;;;;;;;;4949013;29;20035;-80
2022/04/01 05:56:57;;;;;;;5.18;2.70;;;;;;;;;;4948898;28;20035;-80
2022/04/01 05:59:23;;;;;;;5.20;2.88;;;;;;;;;;4952903;28;20484;-82
2022/04/01 06:02:15;;;;;;;4.57;2.63;;;;;;;;;;4951746;28;20039;-82
2022/04/01 06:04:49;;;;;;;4.18;2.60;;;;;;;;;;4951829;28;20042;-81
2022/04/01 06:07:31;;;;;;;5.13;2.63;;;;;;;;;;4952638;28;20038;-86
2022/04/01 06:10:05;;;;;;;6.00;2.83;;;;;;;;;;4949846;28;20454;-86
2022/04/01 06:12:45;;;;;;;3.78;2.38;;;;;;;;;;4953063;28;20450;-89
2022/04/01 06:15:40;;;;;;;4.05;2.40;;;;;;;;;;4953717;28;20109;-86
2022/04/01 06:18:38;;;;;;;5.03;2.75;;;;;;;;;;4964990;28;20039;-87
2022/04/01 06:21:04;;;;;;;4.90;2.40;;;;;;;;;;4951216;28;20501;-80
2022/04/01 06:23:48;;;;;;;4.22;2.60;;;;;;;;;;4954386;28;20022;-88
2022/04/01 06:26:14;;;;;;;5.45;2.58;;;;;;;;;;4952367;29;20171;-82
2022/04/01 06:28:50;;;;;;;4.85;2.60;;;;;;;;;;4947252;28;20494;-81
2022/04/01 06:31:21;;;;;;;4.32;2.30;;;;;;;;;;4948065;28;20034;-84
2022/04/01 06:33:49;;;;;;;4.63;2.47;;;;;;;;;;4950234;28;20055;-81
2022/04/01 06:36:21;;;;;;;5.15;2.50;;;;;;;;;;4948662;29;20070;-88
2022/04/01 06:39:02;;;;;;;4.53;2.40;;;;;;;;;;4954292;28;20031;-80
2022/04/01 06:41:40;;;;;;;3.58;2.20;;;;;;;;;;4949360;28;20042;-83
2022/04/01 06:44:06;;;;;;;5.03;2.47;;;;;;;;;;4950843;28;20079;-81
2022/04/01 06:46:31;;;;;;;4.53;2.70;;;;;;;;;;4948948;28;20051;-86
2022/04/01 06:48:56;;;;;;;5.72;2.63;;;;;;;;;;4949776;29;20042;-80
2022/04/01 06:51:22;;;;;;;4.00;2.50;;;;;;;;;;4947336;29;20035;-86
2022/04/01 06:53:47;;;;;;;6.28;2.83;;;;;;;;;;4942126;29;20149;-85
2022/04/01 06:56:12;;;;;;;4.93;2.80;;;;;;;;;;4945412;29;20068;-80
2022/04/01 06:58:38;;;;;;;4.90;2.58;;;;;;;;;;4949544;28;20042;-84
2022/04/01 07:01:03;;;;;;;4.35;2.70;;;;;;;;;;4945271;29;20460;-84
2022/04/01 07:03:30;;;;;;;4.32;2.50;;;;;;;;;;4950557;28;20027;-86
2022/04/01 07:05:56;;;;;;;5.20;2.42;;;;;;;;;;4963298;28;20518;-84
2022/04/01 07:08:21;;;;;;;5.60;2.80;;;;;;;;;;4947806;29;20059;-84
2022/04/01 07:10:47;;;;;;;4.95;2.75;;;;;;;;;;4950262;29;20031;-85
2022/04/01 07:13:12;;;;;;;4.03;2.40;;;;;;;;;;4952631;29;20031;-81
2022/04/01 07:15:38;;;;;;;4.20;2.50;;;;;;;;;;4957701;28;20039;-81
2022/04/01 07:18:04;;;;;;;4.57;2.60;;;;;;;;;;4949424;29;20411;-81
2022/04/01 07:20:30;;;;;;;4.65;2.40;;;;;;;;;;4952821;29;20077;-86
2022/04/01 07:22:55;;;;;;;4.15;2.28;;;;;;;;;;4951008;29;20035;-80
2022/04/01 07:25:23;;;;;;;4.28;2.58;;;;;;;;;;4948050;28;20031;-81
2022/04/01 07:27:49;;;;;;;4.85;2.47;;;;;;;;;;4949447;29;20121;-83
2022/04/01 07:30:15;;;;;;;5.93;2.40;;;;;;;;;;4952777;29;20105;-83
2022/04/01 07:32:41;;;;;;;4.40;2.50;;;;;;;;;;4948765;29;20059;-83
2022/04/01 07:35:14;;;;;;;5.45;2.78;;;;;;;;;;4950604;29;20131;-85
2022/04/01 07:37:42;;;;;;;4.43;2.53;;;;;;;;;;4951711;29;20078;-79
2022/04/01 07:40:08;;;;;;;5.10;2.55;;;;;;;;;;4948449;28;20059;-80
2022/04/01 07:42:35;;;;;;;5.65;2.78;;;;;;;;;;4950694;29;20114;-79
2022/04/01 07:45:01;;;;;;;4.78;2.75;;;;;;;;;;4949718;28;20375;-83
2022/04/01 07:47:27;;;;;;;4.72;2.65;;;;;;;;;;4949402;29;20031;-83
2022/04/01 07:49:52;;;;;;;5.35;3.00;;;;;;;;;;4953179;29;20035;-79
2022/04/01 07:52:20;;;;;;;4.68;2.67;;;;;;;;;;4945330;29;20030;-80
2022/04/01 07:54:46;;;;;;;4.63;2.60;;;;;;;;;;4951067;29;20113;-81
2022/04/01 07:57:13;;;;;;;4.25;2.35;;;;;;;;;;4949594;29;20535;-83
2022/04/01 07:59:39;;;;;;;4.18;2.45;;;;;;;;;;4949982;28;20058;-80
2022/04/01 08:02:06;;;;;;;4.30;2.45;;;;;;;;;;4952013;28;20036;-79
2022/04/01 08:04:32;;;;;;;3.78;2.33;;;;;;;;;;4950133;29;20039;-86
2022/04/01 08:06:58;;;;;;;5.03;2.53;;;;;;;;;;4952693;28;20094;-83
2022/04/01 08:09:24;;;;;;;3.80;2.50;;;;;;;;;;4949771;29;20381;-80
2022/04/01 08:11:50;;;;;;;4.20;2.50;;;;;;;;;;4952854;28;20483;-80
2022/04/01 08:14:17;;;;;;;4.70;2.22;;;;;;;;;;4948498;28;20031;-81
2022/04/01 08:16:43;;;;;;;4.75;2.60;;;;;;;;;;4951406;29;20027;-87
2022/04/01 08:19:08;;;;;;;4.15;2.28;;;;;;;;;;4948765;28;20391;-81
2022/04/01 08:21:34;;;;;;;3.60;2.25;;;;;;;;;;4946369;28;20094;-80
2022/04/01 08:23:59;;;;;;;4.82;2.08;;;;;;;;;;4961544;28;20031;-83
2022/04/01 08:26:25;;;;;;;4.63;2.25;;;;;;;;;;4949173;28;20125;-84
2022/04/01 08:28:51;;;;;;;3.53;2.10;;;;;;;;;;4951671;29;20479;-80
2022/04/01 08:31:16;;;;;;;3.67;2.10;;;;;;;;;;4952393;29;20030;-80
2022/04/01 08:33:42;;;;;;;4.97;2.25;;;;;;;;;;4951677;29;20026;-81
2022/04/01 08:36:08;;;;;;;4.22;2.10;;;;;;;;;;4951157;28;20035;-81
2022/04/01 08:38:33;;;;;;;3.55;1.80;;;;;;;;;;4947027;28;20040;-82
2022/04/01 08:40:59;;;;;;;4.30;2.08;;;;;;;;;;4950945;29;20042;-80
2022/04/01 08:43:33;;;;;;;2.92;1.60;;;;;;;;;;4951596;29;20502;-80
2022/04/01 08:46:02;;;;;;;4.18;1.60;;;;;;;;;;4949211;29;20035;-82
2022/04/01 08:48:28;;;;;;;2.75;1.55;;;;;;;;;;4952342;29;20023;-81
2022/04/01 08:50:54;;;;;;;3.08;1.50;;;;;;;;;;4952625;29;20067;-82
2022/04/01 08:53:20;;;;;;;4.35;1.45;;;;;;;;;;4948841;29;20118;-80
2022/04/01 08:55:47;;;;;;;2.47;1.40;;;;;;;;;;4950239;29;20398;-80
2022/04/01 08:58:16;;;;;;;2.55;1.35;;;;;;;;;;4951673;29;20525;-86
2022/04/01 09:00:43;;;;;;;3.10;1.70;;;;;;;;;;4947504;29;20030;-86
2022/04/01 09:03:10;;;;;;;3.67;1.63;;;;;;;;;;4962570;28;20130;-88
2022/04/01 09:05:52;;;;;;;3.45;1.83;;;;;;;;;;4952446;28;20027;-88
2022/04/01 09:08:35;;;;;;;3.50;1.70;;;;;;;;;;4951075;29;20051;-87
2022/04/01 09:11:03;;;;;;;2.17;1.17;;;;;;;;;;4949378;29;20023;-80
2022/04/01 09:13:31;;;;;;;4.25;1.75;;;;;;;;;;4942818;29;20651;-86
2022/04/01 09:15:58;;;;;;;5.53;1.88;;;;;;;;;;4950222;29;20042;-80
2022/04/01 09:18:42;;;;;;;3.95;1.20;;;;;;;;;;4948527;29;20480;-82
2022/04/01 09:21:09;;;;;;;2.95;1.48;;;;;;;;;;4951100;29;20135;-83
2022/04/01 09:23:36;;;;;;;3.50;1.40;;;;;;;;;;4945190;29;20027;-86
2022/04/01 09:26:01;;;;;;;3.03;1.42;;;;;;;;;;4964370;28;20133;-86
2022/04/01 09:28:37;;;;;;;2.00;1.33;;;;;;;;;;4951242;29;20059;-80
2022/04/01 09:31:14;;;;;;;2.67;1.45;;;;;;;;;;4954340;28;20031;-81
2022/04/01 09:33:39;;;;;;;2.75;1.50;;;;;;;;;;4952477;29;20043;-80
2022/04/01 09:36:06;;;;;;;3.63;1.45;;;;;;;;;;4953918;29;20046;-80
2022/04/01 09:38:32;;;;;;;3.80;1.50;;;;;;;;;;4960919;28;20040;-83
2022/04/01 09:41:02;;;;;;;2.40;1.40;;;;;;;;;;4953582;28;20070;-83
2022/04/01 09:43:27;;;;;;;3.25;1.40;;;;;;;;;;4970920;28;20034;-85
2022/04/01 09:45:53;;;;;;;2.60;1.35;;;;;;;;;;4951673;28;20467;-83
2022/04/01 09:48:20;;;;;;;3.38;1.60;;;;;;;;;;4954740;29;20062;-87
2022/04/01 09:50:55;;;;;;;3.45;1.63;;;;;;;;;;4953892;28;20020;-80
2022/04/01 09:53:21;;;;;;;2.85;1.40;;;;;;;;;;4954077;28;20376;-82
2022/04/01 09:55:49;;;;;;;3.08;1.60;;;;;;;;;;4954937;28;20113;-83
2022/04/01 09:58:16;;;;;;;3.17;1.65;;;;;;;;;;4950840;28;20028;-82
2022/04/01 10:00:43;;;;;;;3.95;1.55;;;;;;;;;;4954394;28;20035;-79
2022/04/01 10:03:10;;;;;;;3.58;1.80;;;;;;;;;;4952343;28;20035;-80
2022/04/01 10:05:36;;;;;;;3.97;2.10;;;;;;;;;;4950325;28;20499;-86
2022/04/01 10:08:04;;;;;;;5.20;2.10;;;;;;;;;;4952073;29;20432;-79
2022/04/01 10:10:30;;;;;;;3.80;2.00;;;;;;;;;;4951688;29;20019;-83
2022/04/01 10:13:07;;;;;;;4.45;2.35;;;;;;;;;;4953030;28;20027;-83
2022/04/01 10:15:33;;;;;;;5.15;2.30;;;;;;;;;;4949491;28;20078;-82
2022/04/01 10:18:00;;;;;;;4.25;2.58;;;;;;;;;;4953805;28;20035;-79
2022/04/01 10:20:31;;;;;;;5.68;2.60;;;;;;;;;;4953031;28;20039;-82
2022/04/01 10:22:57;;;;;;;5.13;2.60;;;;;;;;;;4950501;28;20027;-79
2022/04/01 10:25:59;;;;;;;5.07;2.47;;;;;;;;;;4950823;28;20097;-82
2022/04/01 10:28:26;;;;;;;3.97;2.42;;;;;;;;;;4950658;28;20042;-79
2022/04/01 10:30:53;;;;;;;4.65;2.65;;;;;;;;;;4948890;29;20511;-84
2022/04/01 10:33:24;;;;;;;5.05;3.00;;;;;;;;;;4952589;29;20035;-79
2022/04/01 10:35:50;;;;;;;5.60;3.00;;;;;;;;;;4953371;29;20110;-84
2022/04/01 10:38:20;;;;;;;5.13;2.92;;;;;;;;;;4953604;28;20106;-84
2022/04/01 10:40:50;;;;;;;4.97;2.88;;;;;;;;;;4949977;29;20019;-83
2022/04/01 10:43:18;;;;;;;5.07;2.92;;;;;;;;;;4948627;29;20038;-78
2022/04/01 10:46:10;;;;;;;4.30;2.80;;;;;;;;;;4950843;29;20117;-83
2022/04/01 10:51:36;;;;;;;4.90;2.83;;;;;;;;;;4954092;29;20037;-83
2022/04/01 10:54:22;;;;;;;5.25;3.05;;;;;;;;;;4954879;29;20483;-78
2022/04/01 10:57:05;;;;;;;5.10;2.95;;;;;;;;;;4949837;29;20542;-79
2022/04/01 10:59:50;;;;;;;5.32;3.10;;;;;;;;;;4965787;28;20031;-83
2022/04/01 11:02:20;;;;;;;5.68;3.53;;;;;;;;;;4950766;28;20044;-85
2022/04/01 11:04:47;;;;;;;6.13;3.42;;;;;;;;;;4948973;28;20034;-80
2022/04/01 11:07:29;;;;;;;5.53;3.70;;;;;;;;;;4950563;28;20030;-80
2022/04/01 11:10:07;;;;;;;7.13;3.75;;;;;;;;;;4951557;29;21148;-80
2022/04/01 11:12:38;;;;;;;10.30;3.63;;;;;;;;;;4950314;29;20019;-85
2022/04/01 11:15:09;;;;;;;6.15;3.15;;;;;;;;;;4950356;29;20038;-79
2022/04/01 11:17:34;;;;;;;5.95;4.00;;;;;;;;;;4949426;29;20401;-86
2022/04/01 11:20:03;;;;;;;6.75;3.50;;;;;;;;;;4952922;29;20027;-80
2022/04/01 11:22:53;;;;;;;7.43;3.50;;;;;;;;;;4949895;28;20478;-80
2022/04/01 11:25:21;;;;;;;6.60;3.53;;;;;;;;;;4967244;28;20023;-83
2022/04/01 11:27:56;;;;;;;6.47;3.40;;;;;;;;;;4950723;29;20035;-79
2022/04/01 11:30:25;;;;;;;6.40;3.60;;;;;;;;;;4951411;29;20027;-86
2022/04/01 11:32:55;;;;;;;6.55;3.83;;;;;;;;;;4949942;29;20074;-85
2022/04/01 11:35:22;;;;;;;4.97;3.30;;;;;;;;;;4949962;29;20423;-86
2022/04/01 11:37:49;;;;;;;6.00;3.42;;;;;;;;;;4951955;29;20049;-86
2022/04/01 11:40:17;;;;;;;6.45;3.95;;;;;;;;;;4949224;29;20036;-87
2022/04/01 11:42:52;;;;;;;6.43;4.00;;;;;;;;;;4952335;28;20527;-79
2022/04/01 11:45:19;;;;;;;6.20;3.63;;;;;;;;;;4950598;29;20039;-84
2022/04/01 11:47:44;;;;;;;5.25;3.50;;;;;;;;;;4952363;29;20031;-86
2022/04/01 11:50:12;;;;;;;6.35;3.92;;;;;;;;;;4951678;28;20035;-87
2022/04/01 11:52:42;;;;;;;7.18;4.13;;;;;;;;;;4949427;29;20027;-81
2022/04/01 11:55:14;;;;;;;6.82;4.22;;;;;;;;;;4949559;29;20027;-86
2022/04/01 11:57:41;;;;;;;6.72;4.00;;;;;;;;;;4947153;28;20023;-87
2022/04/01 12:00:14;;;;;;;7.15;3.72;;;;;;;;;;4948917;29;20075;-86
2022/04/01 12:02:41;;;;;;;6.53;4.03;;;;;;;;;;4948018;29;20415;-85
2022/04/01 12:05:08;;;;;;;6.82;4.20;;;;;;;;;;4951973;28;20035;-86
2022/04/01 12:10:19;;;;;;;7.93;4.25;;;;;;;;;;4951207;29;20399;-85
2022/04/01 12:12:55;;;;;;;8.30;4.30;;;;;;;;;;4950047;29;20181;-86
2022/04/01 12:15:38;;;;;;;7.05;4.18;;;;;;;;;;4950071;29;20031;-85
2022/04/01 12:18:08;;;;;;;6.47;4.38;;;;;;;;;;4951473;28;20387;-84
2022/04/01 12:20:41;;;;;;;7.47;4.47;;;;;;;;;;4947951;29;20039;-84
2022/04/01 12:23:07;;;;;;;7.07;4.00;;;;;;;;;;4951496;29;20469;-80
2022/04/01 12:25:35;;;;;;;7.68;4.93;;;;;;;;;;4948811;29;20051;-86
2022/04/01 12:28:04;;;;;;;7.18;4.90;;;;;;;;;;4950401;29;20027;-84
2022/04/01 12:30:35;;;;;;;8.00;4.55;;;;;;;;;;4951771;29;20467;-86
2022/04/01 12:33:04;;;;;;;7.70;4.85;;;;;;;;;;4945510;29;20106;-80
2022/04/01 12:35:30;;;;;;;7.72;4.90;;;;;;;;;;4953053;28;20498;-86
2022/04/01 12:38:03;;;;;;;9.38;5.13;;;;;;;;;;4951769;29;20027;-80
2022/04/01 12:40:34;;;;;;;7.80;4.75;;;;;;;;;;4948893;28;20062;-80
2022/04/01 12:42:59;;;;;;;7.95;5.22;;;;;;;;;;4949960;29;20395;-84
2022/04/01 12:45:25;;;;;;;7.63;5.25;;;;;;;;;;4947657;29;20031;-80
2022/04/01 12:47:50;;;;;;;8.07;4.97;;;;;;;;;;4945692;29;20035;-85
2022/04/01 12:50:35;;;;;;;8.45;5.22;;;;;;;;;;4950464;29;20027;-84
2022/04/01 12:53:12;;;;;;;9.70;5.80;;;;;;;;;;4949848;29;20047;-81
2022/04/01 12:55:38;;;;;;;8.68;5.32;;;;;;;;;;4951193;29;20121;-81
2022/04/01 12:58:04;;;;;;;8.73;5.35;;;;;;;;;;4944733;29;20098;-84
2022/04/01 13:00:30;;;;;;;8.07;4.90;;;;;;;;;;4948447;28;20582;-83
2022/04/01 13:03:01;;;;;;;9.15;5.40;;;;;;;;;;4950608;28;20103;-81
2022/04/01 13:05:26;;;;;;;7.55;5.30;;;;;;;;;;4954755;28;20086;-84
2022/04/01 13:07:53;;;;;;;8.15;5.28;;;;;;;;;;4955331;29;20059;-84
2022/04/01 13:10:21;;;;;;;10.85;5.60;;;;;;;;;;4955348;29;20555;-81
2022/04/01 13:12:47;;;;;;;9.00;5.43;;;;;;;;;;4951532;29;20039;-82
2022/04/01 13:15:24;;;;;;;9.20;5.53;;;;;;;;;;4947788;29;20554;-81
2022/04/01 13:17:55;;;;;;;8.93;5.45;;;;;;;;;;4952427;29;20053;-81
2022/04/01 13:20:31;;;;;;;8.93;5.40;;;;;;;;;;4952265;29;20471;-81
2022/04/01 13:22:59;;;;;;;8.05;5.78;;;;;;;;;;4950397;28;20075;-87
2022/04/01 13:25:25;;;;;;;7.05;5.00;;;;;;;;;;4953395;29;20479;-87
2022/04/01 13:27:50;;;;;;;7.32;5.18;;;;;;;;;;4954952;28;20077;-81
2022/04/01 13:30:17;;;;;;;8.20;5.40;;;;;;;;;;4955502;28;20038;-87
2022/04/01 13:32:43;;;;;;;9.43;5.80;;;;;;;;;;4946250;28;20039;-85
2022/04/01 13:35:09;;;;;;;8.35;5.85;;;;;;;;;;4954427;29;20041;-89
2022/04/01 13:37:35;;;;;;;7.85;5.28;;;;;;;;;;4953800;28;20424;-87
2022/04/01 13:40:01;;;;;;;6.60;4.93;;;;;;;;;;4955685;29;20364;-81
2022/04/01 13:42:28;;;;;;;7.80;5.43;;;;;;;;;;4954328;29;20031;-80
2022/04/01 13:44:54;;;;;;;9.45;5.88;;;;;;;;;;4952914;29;20423;-85
2022/04/01 13:47:19;;;;;;;7.03;4.90;;;;;;;;;;4953525;28;20071;-84
2022/04/01 13:49:45;;;;;;;8.40;4.90;;;;;;;;;;4949080;29;20019;-81
2022/04/01 13:52:11;;;;;;;7.50;4.53;;;;;;;;;;4950314;28;20106;-81
2022/04/01 13:54:39;;;;;;;6.10;4.22;;;;;;;;;;4954966;28;20045;-82
2022/04/01 13:57:05;;;;;;;6.63;4.40;;;;;;;;;;4952528;28;20114;-84
2022/04/01 13:59:30;;;;;;;5.60;3.90;;;;;;;;;;4954134;28;20118;-81
2022/04/01 14:01:56;;;;;;;6.53;4.13;;;;;;;;;;4949287;28;20039;-85
2022/04/01 14:04:22;;;;;;;6.30;4.22;;;;;;;;;;4953782;28;20027;-85
2022/04/01 14:06:50;;;;;;;7.85;3.90;;;;;;;;;;4953367;28;20049;-82
2022/04/01 14:09:16;;;;;;;7.72;4.05;;;;;;;;;;4954461;29;20054;-82
2022/04/01 14:11:42;;;;;;;5.53;3.63;;;;;;;;;;4952499;28;20024;-81
2022/04/01 14:14:08;;;;;;;5.90;3.47;;;;;;;;;;4935241;29;20130;-84
2022/04/01 14:16:37;;;;;;;8.90;3.97;;;;;;;;;;4951494;29;20038;-87
2022/04/01 14:19:06;;;;;;;5.80;3.25;;;;;;;;;;4951413;29;20038;-85
2022/04/01 14:21:33;;;;;;;6.03;3.45;;;;;;;;;;4952600;28;20454;-82
2022/04/01 14:23:58;;;;;;;5.82;2.97;;;;;;;;;;4951802;28;20364;-87
2022/04/01 14:26:25;;;;;;;6.05;3.17;;;;;;;;;;4955319;28;20082;-81
2022/04/01 14:28:50;;;;;;;4.57;3.05;;;;;;;;;;4950446;28;20031;-82
2022/04/01 14:31:16;;;;;;;5.47;2.90;;;;;;;;;;4953236;29;20027;-85
2022/04/01 14:33:42;;;;;;;6.10;3.00;;;;;;;;;;4952951;29;20038;-86
2022/04/01 14:36:08;;;;;;;5.88;3.20;;;;;;;;;;4950367;29;20790;-82
2022/04/01 14:38:34;;;;;;;6.80;3.00;;;;;;;;;;4948563;29;20031;-81
2022/04/01 14:40:59;;;;;;;5.07;3.00;;;;;;;;;;4940888;29;20043;-86
2022/04/01 14:43:25;;;;;;;4.95;3.00;;;;;;;;;;4947049;28;20054;-82
2022/04/01 14:45:50;;;;;;;6.00;2.97;;;;;;;;;;4947388;28;20035;-84
2022/04/01 14:48:16;;;;;;;4.63;2.72;;;;;;;;;;4949406;28;20431;-81
2022/04/01 14:50:42;;;;;;;6.35;2.63;;;;;;;;;;4945207;28;20083;-85
2022/04/01 14:53:09;;;;;;;4.60;2.85;;;;;;;;;;4956968;28;20047;-82
2022/04/01 14:55:35;;;;;;;6.13;2.45;;;;;;;;;;4960968;28;20039;-82
2022/04/01 14:58:01;;;;;;;3.60;2.15;;;;;;;;;;4951137;28;20098;-86
2022/04/01 15:00:32;;;;;;;4.20;2.30;;;;;;;;;;4941210;28;21219;-82
2022/04/01 15:02:57;;;;;;;3.70;2.20;;;;;;;;;;4945544;28;20087;-86
2022/04/01 15:05:23;;;;;;;3.17;1.90;;;;;;;;;;4948086;28;20050;-84
2022/04/01 15:07:51;;;;;;;3.63;1.90;;;;;;;;;;4949138;28;20039;-82
2022/04/01 15:10:17;;;;;;;4.88;2.20;;;;;;;;;;4964461;28;20031;-81